createdAt,value
2018-02-20T00:02:19.309Z,45.47
2018-02-20T00:04:46.795Z,46.10
2018-02-20T00:07:15.028Z,45.97
2018-02-20T00:09:42.515Z,45.93
2018-02-20T00:12:09.970Z,50.00
2018-02-20T00:14:38.252Z,52.20
2018-02-20T00:17:05.719Z,47.77
2018-02-20T00:19:34.128Z,44.67
2018-02-20T00:22:01.599Z,43.80
2018-02-20T00:24:29.071Z,44.80
2018-02-20T00:26:56.572Z,57.23
2018-02-20T00:29:24.802Z,50.20
2018-02-20T00:31:52.276Z,50.57
2018-02-20T00:34:19.733Z,46.77
2018-02-20T00:36:47.983Z,51.43
2018-02-20T00:39:15.449Z,47.20
2018-02-20T00:41:42.969Z,49.00
2018-02-20T00:44:10.426Z,48.30
2018-02-20T00:46:37.911Z,47.43
2018-02-20T00:49:05.391Z,53.93
2018-02-20T00:51:33.658Z,47.20
2018-02-20T00:54:01.141Z,49.73
2018-02-20T00:56:29.377Z,52.17
2018-02-20T00:58:56.883Z,54.03
2018-02-20T01:01:24.359Z,51.60
2018-02-20T01:03:51.833Z,54.83
2018-02-20T01:06:19.321Z,51.10
2018-02-20T01:08:46.796Z,49.70
2018-02-20T01:11:14.279Z,55.23
2018-02-20T01:13:41.775Z,51.87
2018-02-20T01:16:09.240Z,50.20
2018-02-20T01:18:36.714Z,53.70
2018-02-20T01:21:04.955Z,50.77
2018-02-20T01:23:32.449Z,48.90
2018-02-20T01:26:00.686Z,47.50
2018-02-20T01:28:28.171Z,54.80
2018-02-20T01:30:56.408Z,58.53
2018-02-20T01:33:23.915Z,53.37
2018-02-20T01:35:52.160Z,55.00
2018-02-20T01:38:19.643Z,53.40
2018-02-20T01:40:47.879Z,58.27
2018-02-20T01:43:15.353Z,54.10
2018-02-20T01:45:42.847Z,57.30
2018-02-20T01:48:10.323Z,55.17
2018-02-20T01:50:37.808Z,54.17
2018-02-20T01:53:05.293Z,51.20
2018-02-20T01:55:33.532Z,53.33
2018-02-20T01:58:01.031Z,55.40
2018-02-20T02:00:28.510Z,50.77
2018-02-20T02:02:55.970Z,55.17
2018-02-20T02:05:23.473Z,51.23
2018-02-20T02:07:50.957Z,53.27
2018-02-20T02:10:18.456Z,54.43
2018-02-20T02:12:46.303Z,57.40
2018-02-20T02:15:13.817Z,52.60
2018-02-20T02:17:42.059Z,55.23
2018-02-20T02:20:09.550Z,59.37
2018-02-20T02:22:37.816Z,59.73
2018-02-20T02:25:06.080Z,59.33
2018-02-20T02:27:33.564Z,62.73
2018-02-20T02:30:01.837Z,57.83
2018-02-20T02:32:30.064Z,57.13
2018-02-20T02:34:57.550Z,61.20
2018-02-20T02:37:25.028Z,60.50
2018-02-20T02:39:52.504Z,52.17
2018-02-20T02:42:19.979Z,62.53
2018-02-20T02:44:47.444Z,62.07
2018-02-20T02:47:14.932Z,57.77
2018-02-20T02:49:43.186Z,58.23
2018-02-20T02:52:10.679Z,57.20
2018-02-20T02:54:38.931Z,62.53
2018-02-20T02:57:06.407Z,52.00
2018-02-20T02:59:34.644Z,54.87
2018-02-20T03:02:02.131Z,57.27
2018-02-20T03:04:30.371Z,56.53
2018-02-20T03:06:57.860Z,54.00
2018-02-20T03:09:26.102Z,62.73
2018-02-20T03:11:53.724Z,56.10
2018-02-20T03:14:21.212Z,65.23
2018-02-20T03:16:48.691Z,53.83
2018-02-20T03:19:16.194Z,57.93
2018-02-20T03:21:43.659Z,55.37
2018-02-20T03:24:11.138Z,60.60
2018-02-20T03:26:38.615Z,56.10
2018-02-20T03:29:06.100Z,64.37
2018-02-20T03:31:33.583Z,61.97
2018-02-20T03:34:01.072Z,59.27
2018-02-20T03:36:28.547Z,56.90
2018-02-20T03:38:56.811Z,55.63
2018-02-20T03:41:24.279Z,59.07
2018-02-20T03:43:52.553Z,55.13
2018-02-20T03:46:20.013Z,55.60
2018-02-20T03:48:48.275Z,55.13
2018-02-20T03:51:15.752Z,57.23
2018-02-20T03:53:43.241Z,53.03
2018-02-20T03:56:10.720Z,51.07
2018-02-20T03:58:38.203Z,62.63
2018-02-20T04:01:05.668Z,66.67
2018-02-20T04:03:33.162Z,58.07
2018-02-20T04:06:00.651Z,59.50
2018-02-20T04:08:28.138Z,66.90
2018-02-20T04:10:56.419Z,58.70
2018-02-20T04:13:24.663Z,57.37
2018-02-20T04:15:52.153Z,58.50
2018-02-20T04:18:19.698Z,52.23
2018-02-20T04:20:47.166Z,58.97
2018-02-20T04:23:14.626Z,60.60
2018-02-20T04:25:42.180Z,58.37
2018-02-20T04:28:09.639Z,61.50
2018-02-20T04:30:37.133Z,56.93
2018-02-20T04:33:04.607Z,53.47
2018-02-20T04:35:32.115Z,56.90
2018-02-20T04:37:59.580Z,55.43
2018-02-20T04:40:27.076Z,59.87
2018-02-20T04:42:54.557Z,57.47
2018-02-20T04:45:22.820Z,61.43
2018-02-20T04:47:50.320Z,56.30
2018-02-20T04:50:17.797Z,57.87
2018-02-20T04:52:45.306Z,55.47
2018-02-20T04:55:13.557Z,60.70
2018-02-20T04:57:41.049Z,52.97
2018-02-20T05:00:09.295Z,58.03
2018-02-20T05:02:36.789Z,68.20
2018-02-20T05:05:04.258Z,60.20
2018-02-20T05:07:31.742Z,65.40
2018-02-20T05:09:59.216Z,65.83
2018-02-20T05:12:26.706Z,59.47
2018-02-20T05:14:54.280Z,63.17
2018-02-20T05:17:21.804Z,64.13
2018-02-20T05:19:50.028Z,61.57
2018-02-20T05:22:17.506Z,65.93
2018-02-20T05:24:45.080Z,66.47
2018-02-20T05:27:12.566Z,61.57
2018-02-20T05:29:40.821Z,64.33
2018-02-20T05:32:08.383Z,63.20
2018-02-20T05:34:36.625Z,66.70
2018-02-20T05:37:04.115Z,62.63
2018-02-20T05:39:32.376Z,64.07
2018-02-20T05:42:01.354Z,72.17
2018-02-20T05:44:28.947Z,66.77
2018-02-20T05:46:57.183Z,70.20
2018-02-20T05:49:24.825Z,65.60
2018-02-20T05:51:52.299Z,73.93
2018-02-20T05:54:19.774Z,68.77
2018-02-20T05:56:48.002Z,68.47
2018-02-20T05:59:15.507Z,70.67
2018-02-20T06:01:43.737Z,69.23
2018-02-20T06:04:11.418Z,71.57
2018-02-20T06:06:38.966Z,62.63
2018-02-20T06:09:06.632Z,65.87
2018-02-20T06:11:34.127Z,68.83
2018-02-20T06:14:02.394Z,73.50
2018-02-20T06:16:30.651Z,78.93
2018-02-20T06:18:58.185Z,76.20
2018-02-20T06:21:25.671Z,76.07
2018-02-20T06:23:53.286Z,75.70
2018-02-20T06:26:20.791Z,73.47
2018-02-20T06:28:48.270Z,74.77
2018-02-20T06:31:15.779Z,68.97
2018-02-20T06:33:43.251Z,76.17
2018-02-20T06:36:10.746Z,72.63
2018-02-20T06:38:38.987Z,85.40
2018-02-20T06:41:06.471Z,68.50
2018-02-20T06:43:33.989Z,71.50
2018-02-20T06:46:01.545Z,69.30
2018-02-20T06:48:29.043Z,72.47
2018-02-20T06:50:56.547Z,71.63
2018-02-20T06:53:24.075Z,66.17
2018-02-20T06:55:51.622Z,72.17
2018-02-20T06:58:19.116Z,64.27
2018-02-20T07:00:46.581Z,61.30
2018-02-20T07:03:14.094Z,63.60
2018-02-20T07:05:41.566Z,56.93
2018-02-20T07:08:09.108Z,62.47
2018-02-20T07:10:36.597Z,61.97
2018-02-20T07:13:04.127Z,56.00
2018-02-20T07:15:31.688Z,58.57
2018-02-20T07:17:59.199Z,51.53
2018-02-20T07:20:26.699Z,54.23
2018-02-20T07:22:54.212Z,50.40
2018-02-20T07:25:21.735Z,45.00
2018-02-20T07:27:49.214Z,44.57
2018-02-20T07:30:16.700Z,45.77
2018-02-20T07:32:44.926Z,50.80
2018-02-20T07:35:12.432Z,41.00
2018-02-20T07:37:40.788Z,46.97
2018-02-20T07:40:08.268Z,42.73
2018-02-20T07:42:36.496Z,47.80
2018-02-20T07:45:03.992Z,47.23
2018-02-20T07:47:32.220Z,45.27
2018-02-20T07:49:59.724Z,45.87
2018-02-20T07:52:27.192Z,42.03
2018-02-20T07:54:54.678Z,42.93
2018-02-20T07:57:22.144Z,42.97
2018-02-20T07:59:49.648Z,43.10
2018-02-20T08:02:17.171Z,42.37
2018-02-20T08:04:44.666Z,43.67
2018-02-20T08:07:12.891Z,38.83
2018-02-20T08:09:40.368Z,46.73
2018-02-20T08:12:07.853Z,42.67
2018-02-20T08:14:35.377Z,39.37
2018-02-20T08:17:02.857Z,42.13
2018-02-20T08:19:31.092Z,39.73
2018-02-20T08:21:58.598Z,44.30
2018-02-20T08:24:26.054Z,44.23
2018-02-20T08:26:53.518Z,43.43
2018-02-20T08:29:21.038Z,41.63
2018-02-20T08:31:50.034Z,39.97
2018-02-20T08:34:18.275Z,46.70
2018-02-20T08:36:45.751Z,44.60
2018-02-20T08:39:13.258Z,50.10
2018-02-20T08:41:40.735Z,42.17
2018-02-20T08:44:08.202Z,39.40
2018-02-20T08:46:35.684Z,40.00
2018-02-20T08:49:03.174Z,41.50
2018-02-20T08:51:30.680Z,40.17
2018-02-20T08:53:58.162Z,37.13
2018-02-20T08:56:26.413Z,38.73
2018-02-20T08:58:53.908Z,40.47
2018-02-20T09:01:22.145Z,41.77
2018-02-20T09:03:49.643Z,44.13
2018-02-20T09:06:17.125Z,45.07
2018-02-20T09:08:44.610Z,39.37
2018-02-20T09:11:12.133Z,41.70
2018-02-20T09:13:39.603Z,42.00
2018-02-20T09:16:07.090Z,40.37
2018-02-20T09:18:34.548Z,42.03
2018-02-20T09:21:02.028Z,41.77
2018-02-20T09:23:30.271Z,38.97
2018-02-20T09:25:57.809Z,42.10
2018-02-20T09:28:25.313Z,42.20
2018-02-20T09:30:53.602Z,43.70
2018-02-20T09:33:21.115Z,40.03
2018-02-20T09:35:48.600Z,41.17
2018-02-20T09:38:16.851Z,39.33
2018-02-20T09:40:44.351Z,41.10
2018-02-20T09:43:11.856Z,42.17
2018-02-20T09:45:39.348Z,41.43
2018-02-20T09:48:07.582Z,38.77
2018-02-20T09:50:35.059Z,37.10
2018-02-20T09:53:03.291Z,38.70
2018-02-20T09:55:30.786Z,36.43
2018-02-20T09:57:58.278Z,38.17
2018-02-20T10:00:25.765Z,42.07
2018-02-20T10:02:53.263Z,35.50
2018-02-20T10:05:21.509Z,41.70
2018-02-20T10:07:48.991Z,50.83
2018-02-20T10:10:17.247Z,51.93
2018-02-20T10:12:44.855Z,37.57
2018-02-20T10:15:12.341Z,49.83
2018-02-20T10:17:39.827Z,37.30
2018-02-20T10:20:07.296Z,43.10
2018-02-20T10:22:35.572Z,107.07
2018-02-20T10:25:03.842Z,72.43
2018-02-20T10:27:31.302Z,48.67
2018-02-20T10:29:58.795Z,57.03
2018-02-20T10:32:26.259Z,43.60
2018-02-20T10:34:53.756Z,46.37
2018-02-20T10:37:21.222Z,54.67
2018-02-20T10:39:48.710Z,47.23
2018-02-20T10:42:16.207Z,69.83
2018-02-20T10:44:43.697Z,55.00
2018-02-20T10:47:11.936Z,54.33
2018-02-20T10:49:39.426Z,46.40
2018-02-20T10:52:07.746Z,55.17
2018-02-20T10:54:35.231Z,50.83
2018-02-20T10:57:02.731Z,52.83
2018-02-20T10:59:30.234Z,47.27
2018-02-20T11:01:57.703Z,55.73
2018-02-20T11:04:25.255Z,43.60
2018-02-20T11:06:52.947Z,40.67
2018-02-20T11:09:21.352Z,53.60
2018-02-20T11:11:48.848Z,61.13
2018-02-20T11:14:16.319Z,52.33
2018-02-20T11:16:44.390Z,61.00
2018-02-20T11:19:11.348Z,48.73
2018-02-20T11:21:38.812Z,60.77
2018-02-20T11:24:07.063Z,65.30
2018-02-20T11:26:34.596Z,53.40
2018-02-20T11:29:02.059Z,61.97
2018-02-20T11:31:29.549Z,59.70
2018-02-20T11:33:57.796Z,63.97
2018-02-20T11:36:25.287Z,65.53
2018-02-20T11:38:53.530Z,58.87
2018-02-20T11:41:21.152Z,58.43
2018-02-20T11:43:48.632Z,54.97
2018-02-20T11:46:16.115Z,58.00
2018-02-20T11:48:43.608Z,62.23
2018-02-20T11:51:11.090Z,52.30
2018-02-20T11:53:38.570Z,88.60
2018-02-20T11:56:06.051Z,63.07
2018-02-20T11:58:34.359Z,70.13
2018-02-20T12:01:01.885Z,63.27
2018-02-20T12:03:30.150Z,71.63
2018-02-20T12:05:57.655Z,49.20
2018-02-20T12:08:25.167Z,53.43
2018-02-20T12:10:52.689Z,48.73
2018-02-20T12:13:20.495Z,53.17
2018-02-20T12:15:48.754Z,61.47
2018-02-20T12:18:16.238Z,55.07
2018-02-20T12:20:43.712Z,59.23
2018-02-20T12:23:11.274Z,56.20
2018-02-20T12:25:38.741Z,62.03
2018-02-20T12:28:06.260Z,62.83
2018-02-20T12:30:33.732Z,60.00
2018-02-20T12:33:01.233Z,63.17
2018-02-20T12:35:28.737Z,55.87
2018-02-20T12:37:56.265Z,54.40
2018-02-20T12:40:23.759Z,53.47
2018-02-20T12:42:51.220Z,55.77
2018-02-20T12:45:18.735Z,51.63
2018-02-20T12:47:46.240Z,54.57
2018-02-20T12:50:13.713Z,58.70
2018-02-20T12:52:41.187Z,54.17
2018-02-20T12:55:08.660Z,54.20
2018-02-20T12:57:36.147Z,55.50
2018-02-20T13:00:03.692Z,56.40
2018-02-20T13:02:31.932Z,56.60
2018-02-20T13:04:59.431Z,54.40
2018-02-20T13:07:26.901Z,53.83
2018-02-20T13:09:54.459Z,54.83
2018-02-20T13:12:22.011Z,50.37
2018-02-20T13:14:49.483Z,47.57
2018-02-20T13:17:16.972Z,51.77
2018-02-20T13:19:44.443Z,46.97
2018-02-20T13:22:13.426Z,51.07
2018-02-20T13:24:40.897Z,54.93
2018-02-20T13:27:09.143Z,53.33
2018-02-20T13:29:36.643Z,47.27
2018-02-20T13:32:04.894Z,47.17
2018-02-20T13:34:32.399Z,44.90
2018-02-20T13:36:59.886Z,44.80
2018-02-20T13:39:27.372Z,45.40
2018-02-20T13:41:54.879Z,45.37
2018-02-20T13:44:22.439Z,58.10
2018-02-20T13:46:49.918Z,49.77
2018-02-20T13:49:17.395Z,50.37
2018-02-20T13:51:44.965Z,46.63
2018-02-20T13:54:13.223Z,44.97
2018-02-20T13:56:40.765Z,51.53
2018-02-20T13:59:08.247Z,48.33
2018-02-20T14:01:36.488Z,46.30
2018-02-20T14:04:03.988Z,45.07
2018-02-20T14:06:32.219Z,43.00
2018-02-20T14:08:59.704Z,43.13
2018-02-20T14:11:27.963Z,42.30
2018-02-20T14:13:55.438Z,38.77
2018-02-20T14:16:23.674Z,34.03
2018-02-20T14:18:51.237Z,35.50
2018-02-20T14:21:18.730Z,33.23
2018-02-20T14:23:46.255Z,26.20
2018-02-20T14:26:13.739Z,29.93
2018-02-20T14:28:41.254Z,25.47
2018-02-20T14:31:08.758Z,24.30
2018-02-20T14:33:37.032Z,22.03
2018-02-20T14:36:05.296Z,22.33
2018-02-20T14:38:32.788Z,33.63
2018-02-20T14:41:00.306Z,24.90
2018-02-20T14:43:27.789Z,25.77
2018-02-20T14:45:55.290Z,27.03
2018-02-20T14:48:22.782Z,27.67
2018-02-20T14:50:51.026Z,29.80
2018-02-20T14:53:18.526Z,27.57
2018-02-20T14:55:46.770Z,26.57
2018-02-20T14:58:14.248Z,29.70
2018-02-20T15:00:42.521Z,28.23
2018-02-20T15:03:10.776Z,26.80
2018-02-20T15:05:38.240Z,31.47
2018-02-20T15:08:05.744Z,33.67
2018-02-20T15:10:33.229Z,24.57
2018-02-20T15:13:00.739Z,29.97
2018-02-20T15:15:28.245Z,31.73
2018-02-20T15:17:55.720Z,30.83
2018-02-20T15:20:23.300Z,30.90
2018-02-20T15:22:50.795Z,32.50
2018-02-20T15:25:18.285Z,30.23
2018-02-20T15:27:45.788Z,30.90
2018-02-20T15:30:13.310Z,37.10
2018-02-20T15:32:40.811Z,30.00
2018-02-20T15:35:08.306Z,38.33
2018-02-20T15:37:35.801Z,28.43
2018-02-20T15:40:03.295Z,32.23
2018-02-20T15:42:30.788Z,26.07
2018-02-20T15:44:58.255Z,30.37
2018-02-20T15:47:26.552Z,33.00
2018-02-20T15:49:54.044Z,33.97
2018-02-20T15:52:21.535Z,39.20
2018-02-20T15:54:49.037Z,36.97
2018-02-20T15:57:16.798Z,45.37
2018-02-20T15:59:45.067Z,41.63
2018-02-20T16:02:12.554Z,47.67
2018-02-20T16:04:40.052Z,53.77
2018-02-20T16:07:08.314Z,46.57
2018-02-20T16:09:36.619Z,45.73
2018-02-20T16:12:04.152Z,43.83
2018-02-20T16:14:32.501Z,38.27
2018-02-20T16:17:02.809Z,42.80
2018-02-20T16:19:30.335Z,36.67
2018-02-20T16:21:57.848Z,44.43
2018-02-20T16:24:25.352Z,39.33
2018-02-20T16:26:52.836Z,38.57
2018-02-20T16:29:20.443Z,44.77
2018-02-20T16:31:48.784Z,47.80
2018-02-20T16:34:17.775Z,46.30
2018-02-20T16:36:45.272Z,38.07
2018-02-20T16:39:13.527Z,45.13
2018-02-20T16:41:40.999Z,49.37
2018-02-20T16:44:09.528Z,42.00
2018-02-20T16:46:37.283Z,45.03
2018-02-20T16:49:05.090Z,41.80
2018-02-20T16:51:33.725Z,42.83
2018-02-20T16:54:01.271Z,43.57
2018-02-20T16:56:29.572Z,44.77
2018-02-20T16:58:58.056Z,47.70
2018-02-20T17:01:25.658Z,43.20
2018-02-20T17:03:53.312Z,43.07
2018-02-20T17:06:21.282Z,53.63
2018-02-20T17:08:49.727Z,51.53
2018-02-20T17:11:17.248Z,46.20
2018-02-20T17:13:45.038Z,54.47
2018-02-20T17:16:12.612Z,49.13
2018-02-20T17:18:41.391Z,46.03
2018-02-20T17:21:08.974Z,55.97
2018-02-20T17:23:36.667Z,53.80
2018-02-20T17:26:04.411Z,53.97
2018-02-20T17:28:32.778Z,51.50
2018-02-20T17:31:00.262Z,58.70
2018-02-20T17:33:27.812Z,51.73
2018-02-20T17:35:56.677Z,48.67
2018-02-20T17:38:24.335Z,45.83
2018-02-20T17:40:51.815Z,51.13
2018-02-20T17:43:20.121Z,49.83
2018-02-20T17:45:47.603Z,49.10
2018-02-20T17:48:15.160Z,47.63
2018-02-20T17:50:42.651Z,48.43
2018-02-20T17:53:10.932Z,54.80
2018-02-20T17:55:38.777Z,48.60
2018-02-20T17:58:06.263Z,48.27
2018-02-20T18:00:33.992Z,46.87
2018-02-20T18:03:01.608Z,46.93
2018-02-20T18:05:29.085Z,45.77
2018-02-20T18:07:56.579Z,46.87
2018-02-20T18:10:24.875Z,51.17
2018-02-20T18:12:52.390Z,50.40
2018-02-20T18:15:19.892Z,46.00
2018-02-20T18:17:47.400Z,50.43
2018-02-20T18:20:14.886Z,46.13
2018-02-20T18:22:43.187Z,54.47
2018-02-20T18:25:10.748Z,44.60
2018-02-20T18:27:38.240Z,47.67
2018-02-20T18:30:05.745Z,44.53
2018-02-20T18:32:33.223Z,43.33
2018-02-20T18:35:00.718Z,46.87
2018-02-20T18:37:28.210Z,47.63
2018-02-20T18:39:55.718Z,53.23
2018-02-20T18:42:23.223Z,45.67
2018-02-20T18:44:50.737Z,49.87
2018-02-20T18:47:18.235Z,52.77
2018-02-20T18:49:45.712Z,47.47
2018-02-20T18:52:13.221Z,53.00
2018-02-20T18:54:40.790Z,49.07
2018-02-20T18:57:08.357Z,53.50
2018-02-20T18:59:36.602Z,47.80
2018-02-20T19:02:04.080Z,51.57
2018-02-20T19:04:32.405Z,53.23
2018-02-20T19:06:59.912Z,49.20
2018-02-20T19:09:28.494Z,58.13
2018-02-20T19:11:56.122Z,48.40
2018-02-20T19:14:23.732Z,51.03
2018-02-20T19:16:51.233Z,51.30
2018-02-20T19:19:19.644Z,52.33
2018-02-20T19:21:47.274Z,52.33
2018-02-20T19:24:14.817Z,55.23
2018-02-20T19:26:42.364Z,50.30
2018-02-20T19:29:09.908Z,44.30
2018-02-20T19:31:37.554Z,49.87
2018-02-20T19:34:05.844Z,51.20
2018-02-20T19:36:33.339Z,50.50
2018-02-20T19:39:01.017Z,43.47
2018-02-20T19:41:28.810Z,53.33
2018-02-20T19:43:56.438Z,50.47
2018-02-20T19:46:24.042Z,52.00
2018-02-20T19:48:51.685Z,55.67
2018-02-20T19:51:20.029Z,47.20
2018-02-20T19:53:47.560Z,59.67
2018-02-20T19:56:15.264Z,61.13
2018-02-20T19:58:43.694Z,52.50
2018-02-20T20:01:11.300Z,57.57
2018-02-20T20:03:39.007Z,53.77
2018-02-20T20:06:06.553Z,58.50
2018-02-20T20:08:34.067Z,53.60
2018-02-20T20:11:03.336Z,55.43
2018-02-20T20:13:31.066Z,55.87
2018-02-20T20:15:58.893Z,51.87
2018-02-20T20:18:26.391Z,62.00
2018-02-20T20:20:53.998Z,58.90
2018-02-20T20:23:21.536Z,56.73
2018-02-20T20:25:49.014Z,63.83
2018-02-20T20:28:17.481Z,60.33
2018-02-20T20:30:45.838Z,59.87
2018-02-20T20:33:13.483Z,57.90
2018-02-20T20:35:41.159Z,64.93
2018-02-20T20:38:08.801Z,65.20
2018-02-20T20:40:36.403Z,55.60
2018-02-20T20:43:03.909Z,67.10
2018-02-20T20:45:31.556Z,60.27
2018-02-20T20:47:59.833Z,63.53
2018-02-20T20:50:27.359Z,64.27
2018-02-20T20:52:54.867Z,59.70
2018-02-20T20:55:22.378Z,61.07
2018-02-20T20:57:49.888Z,61.07
2018-02-20T21:00:17.411Z,59.40
2018-02-20T21:02:44.923Z,57.93
2018-02-20T21:05:14.355Z,63.20
2018-02-20T21:07:41.885Z,60.57
2018-02-20T21:10:09.371Z,60.93
2018-02-20T21:12:36.903Z,63.70
2018-02-20T21:15:04.431Z,62.07
2018-02-20T21:17:31.917Z,69.47
2018-02-20T21:19:59.406Z,70.20
2018-02-20T21:22:27.642Z,74.50
2018-02-20T21:24:55.182Z,68.83
2018-02-20T21:27:22.672Z,63.10
2018-02-20T21:29:51.727Z,69.53
2018-02-20T21:32:19.258Z,67.17
2018-02-20T21:34:47.483Z,72.20
2018-02-20T21:37:14.990Z,73.73
2018-02-20T21:39:43.279Z,69.33
2018-02-20T21:42:10.854Z,66.20
2018-02-20T21:44:38.372Z,64.33
2018-02-20T21:47:06.649Z,75.77
2018-02-20T21:49:34.908Z,64.40
2018-02-20T21:52:03.170Z,71.83
2018-02-20T21:54:31.467Z,73.87
2018-02-20T21:56:59.753Z,72.37
2018-02-20T21:59:27.258Z,69.80
2018-02-20T22:01:54.771Z,70.70
2018-02-20T22:04:22.306Z,71.13
2018-02-20T22:06:49.816Z,65.57
2018-02-20T22:09:17.307Z,71.80
2018-02-20T22:11:44.870Z,64.57
2018-02-20T22:14:12.384Z,70.90
2018-02-20T22:16:39.883Z,75.77
2018-02-20T22:19:08.164Z,67.83
2018-02-20T22:21:35.664Z,68.23
2018-02-20T22:24:03.139Z,65.97
2018-02-20T22:26:30.615Z,72.90
2018-02-20T22:28:58.142Z,72.63
2018-02-20T22:31:25.630Z,65.47
2018-02-20T22:33:53.133Z,71.10
2018-02-20T22:36:20.600Z,75.00
2018-02-20T22:38:48.105Z,75.77
2018-02-20T22:41:15.593Z,70.13
2018-02-20T22:43:43.075Z,72.63
2018-02-20T22:46:10.559Z,66.23
2018-02-20T22:48:38.067Z,73.33
2018-02-20T22:51:05.552Z,76.37
2018-02-20T22:53:33.874Z,79.53
2018-02-20T22:56:01.361Z,79.37
2018-02-20T22:58:28.859Z,82.80
2018-02-20T23:00:56.355Z,86.10
2018-02-20T23:03:23.879Z,80.03
2018-02-20T23:05:51.374Z,84.17
2018-02-20T23:08:19.619Z,80.77
2018-02-20T23:10:47.100Z,83.50
2018-02-20T23:13:15.356Z,82.00
2018-02-20T23:15:42.852Z,84.43
2018-02-20T23:18:10.325Z,87.50
2018-02-20T23:20:37.837Z,85.00
2018-02-20T23:23:06.091Z,77.17
2018-02-20T23:25:33.580Z,74.90
2018-02-20T23:28:01.063Z,73.43
2018-02-20T23:30:28.571Z,77.80
2018-02-20T23:32:56.836Z,75.67
2018-02-20T23:35:24.328Z,83.30
2018-02-20T23:37:51.809Z,77.67
2018-02-20T23:40:19.293Z,77.80
2018-02-20T23:42:46.774Z,84.20
2018-02-20T23:45:15.031Z,83.17
2018-02-20T23:47:42.522Z,77.93
2018-02-20T23:50:10.018Z,74.67
2018-02-20T23:52:37.566Z,80.70
2018-02-20T23:55:05.060Z,72.40
2018-02-20T23:57:32.552Z,73.40
